Aérodrome :
LOGIN :

S'inscrire | Disclaimer

   EN    FR    IT 

 










Légende :    VFR   VFR Marginal   IFR   IFR Intensif   IFR Très Intensif
Visi : 
Plafond : 
>= 8 km
>= 3000ft
5 à 8 km
1000 à 3000 ft
1500m à 5 km
500 à 1000 ft
800 à 1500m
200 à 500 ft
< 800m
< 200 ft
Symboles :   Orages  Brouillard  Fortes neiges  Fortes précipitations  Vent > 20 kt
SIGMETs :   Divers  Orages  Givrage  Turbulence  Onde Orograph.  Cendres Volcan.






- Altitude de l'aérodrome : 74 ft
- Code IATA : MRS


LFML - Marseille / Marignane

DERNIER METAR :
  • 071400Z AUTO 24005KT CAVOK 14/07 Q1019 NOSIG

METARs EXPIRÉS :
  • 071330Z AUTO 23003KT CAVOK 13/08 Q1020 NOSIG
  • 071300Z AUTO VRB02KT CAVOK 12/07 Q1020 NOSIG
  • 071230Z AUTO 27003KT 210V340 CAVOK 12/06 Q1020 NOSIG
  • 071200Z AUTO 29003KT CAVOK 11/07 Q1021 NOSIG
  • 071130Z AUTO VRB02KT 9999 FEW017 10/06 Q1021 NOSIG

TAF TAF LFML
Valide du 07 à 09h jusqu'au 08 à 15h UTC


070800Z 0709/0815 VRB03KT CAVOK TX14/0713Z TN02/0805Z
BECMG 0710/0712 28007KT
BECMG 0719/0721 VRB03KT
ATIS : +33 4 42 31 15 15



MET'MAP, la Météo Aéronautique d'un coup d'oeil ! - Copyright ORBIFLY Décembre 2007 - Disclaimer

ORBIFLY MET'MAP TEAM :

Programmation & Développement : Alexandra Zaïnal
Sur une idée originale de : Baudouin d'Aumeries
Assistance à la programmation : Marc-Olivier Méhu
Soutien technique & logistique : Manuel Goepfert

Contact : metmap@orbifly.com




SOURCES & CREDITS :

   NOAA